createdAt,value
2019-02-28T00:01:43.200Z,10.83
2019-02-28T00:04:13.043Z,9.17
2019-02-28T00:06:44.316Z,10.40
2019-02-28T00:09:17.322Z,10.33
2019-02-28T00:11:49.413Z,9.90
2019-02-28T00:14:19.827Z,9.33
2019-02-28T00:16:51.288Z,9.93
2019-02-28T00:19:24.012Z,9.87
2019-02-28T00:21:57.155Z,10.67
2019-02-28T00:24:30.088Z,9.47
2019-02-28T00:27:03.401Z,9.80
2019-02-28T00:29:35.004Z,9.97
2019-02-28T00:32:05.315Z,10.50
2019-02-28T00:34:39.342Z,8.80
2019-02-28T00:37:09.329Z,10.90
2019-02-28T00:39:42.144Z,10.33
2019-02-28T00:42:17.334Z,11.03
2019-02-28T00:44:45.050Z,11.00
2019-02-28T00:47:16.441Z,9.37
2019-02-28T00:49:49.597Z,10.13
2019-02-28T00:52:20.743Z,11.10
2019-02-28T00:54:52.914Z,10.67
2019-02-28T00:57:23.886Z,10.00
2019-02-28T00:59:56.398Z,11.20
2019-02-28T01:02:27.154Z,11.43
2019-02-28T01:05:01.290Z,10.07
2019-02-28T01:07:31.933Z,11.67
2019-02-28T01:10:04.534Z,10.47
2019-02-28T01:12:34.729Z,11.80
2019-02-28T01:15:10.027Z,11.03
2019-02-28T01:17:39.994Z,10.20
2019-02-28T01:20:14.765Z,11.47
2019-02-28T01:22:43.638Z,10.53
2019-02-28T01:25:14.102Z,10.10
2019-02-28T01:27:46.125Z,10.93
2019-02-28T01:30:17.838Z,11.70
2019-02-28T01:32:51.121Z,12.33
2019-02-28T01:35:22.620Z,12.80
2019-02-28T01:37:53.060Z,12.77
2019-02-28T01:40:25.275Z,13.17
2019-02-28T01:42:57.365Z,14.57
2019-02-28T01:45:28.090Z,13.83
2019-02-28T01:48:00.530Z,15.57
2019-02-28T01:50:31.159Z,16.90
2019-02-28T01:53:01.374Z,15.70
2019-02-28T01:55:32.111Z,15.37
2019-02-28T01:58:02.507Z,17.70
2019-02-28T02:00:34.997Z,20.20
2019-02-28T02:03:06.307Z,20.53
2019-02-28T02:05:37.835Z,22.00
2019-02-28T02:08:10.291Z,21.10
2019-02-28T02:10:42.351Z,21.40
2019-02-28T02:13:12.832Z,22.60
2019-02-28T02:15:44.851Z,22.10
2019-02-28T02:18:15.016Z,21.30
2019-02-28T02:20:45.707Z,23.00
2019-02-28T02:23:18.063Z,20.33
2019-02-28T02:25:50.279Z,20.40
2019-02-28T02:28:20.812Z,21.87
2019-02-28T02:30:52.228Z,21.87
2019-02-28T02:33:24.263Z,21.27
2019-02-28T02:35:54.465Z,20.90
2019-02-28T02:38:26.824Z,19.63
2019-02-28T02:41:00.583Z,20.97
2019-02-28T02:43:31.485Z,21.10
2019-02-28T02:46:02.745Z,21.10
2019-02-28T02:48:33.347Z,22.17
2019-02-28T02:51:10.727Z,23.07
2019-02-28T02:53:42.008Z,24.43
2019-02-28T02:56:12.137Z,24.60
2019-02-28T02:58:42.441Z,24.70
2019-02-28T03:01:12.641Z,25.77
2019-02-28T03:03:44.570Z,24.93
2019-02-28T03:06:16.002Z,26.83
2019-02-28T03:08:46.752Z,27.97
2019-02-28T03:11:18.137Z,27.47
2019-02-28T03:13:50.676Z,28.73
2019-02-28T03:16:21.894Z,28.97
2019-02-28T03:18:56.817Z,28.87
2019-02-28T03:21:25.709Z,30.10
2019-02-28T03:23:58.004Z,30.50
2019-02-28T03:26:28.776Z,32.00
2019-02-28T03:29:07.573Z,32.00
2019-02-28T03:31:34.317Z,32.57
2019-02-28T03:34:12.973Z,32.57
2019-02-28T03:36:36.750Z,34.10
2019-02-28T03:39:08.025Z,34.30
2019-02-28T03:41:39.693Z,35.03
2019-02-28T03:44:09.975Z,33.17
2019-02-28T03:46:46.457Z,35.70
2019-02-28T03:49:14.007Z,36.57
2019-02-28T03:51:44.401Z,36.80
2019-02-28T03:54:16.087Z,38.07
2019-02-28T03:56:51.662Z,37.00
2019-02-28T03:59:20.179Z,37.87
2019-02-28T04:01:50.550Z,38.37
2019-02-28T04:04:23.847Z,38.33
2019-02-28T04:06:54.212Z,40.50
2019-02-28T04:09:24.408Z,40.23
2019-02-28T04:11:55.063Z,40.43
2019-02-28T04:14:28.595Z,40.90
2019-02-28T04:16:58.153Z,41.17
2019-02-28T04:19:28.901Z,40.20
2019-02-28T04:22:00.198Z,41.37
2019-02-28T04:24:30.430Z,42.90
2019-02-28T04:27:07.014Z,43.33
2019-02-28T04:29:36.054Z,41.00
2019-02-28T04:32:08.602Z,40.53
2019-02-28T04:34:40.785Z,42.73
2019-02-28T04:37:12.019Z,40.53
2019-02-28T04:39:44.439Z,43.17
2019-02-28T04:42:15.047Z,41.57
2019-02-28T04:44:49.206Z,43.60
2019-02-28T04:47:20.409Z,43.90
2019-02-28T04:49:53.519Z,43.60
2019-02-28T04:52:23.204Z,43.97
2019-02-28T04:54:59.425Z,46.90
2019-02-28T04:57:30.627Z,44.87
2019-02-28T05:00:05.264Z,43.67
2019-02-28T05:02:34.757Z,44.03
2019-02-28T05:05:12.213Z,44.57
2019-02-28T05:07:39.759Z,43.97
2019-02-28T05:10:10.478Z,46.03
2019-02-28T05:12:41.380Z,46.10
2019-02-28T05:15:14.938Z,46.10
2019-02-28T05:17:46.376Z,43.47
2019-02-28T05:20:16.921Z,43.47
2019-02-28T05:22:48.669Z,43.17
2019-02-28T05:25:19.084Z,43.17
2019-02-28T05:27:50.958Z,44.83
2019-02-28T05:30:21.485Z,44.70
2019-02-28T05:32:51.904Z,41.37
2019-02-28T05:35:26.648Z,42.93
2019-02-28T05:37:55.529Z,40.07
2019-02-28T05:40:25.758Z,41.00
2019-02-28T05:42:58.526Z,40.93
2019-02-28T05:45:31.325Z,43.03
2019-02-28T05:48:03.955Z,41.03
2019-02-28T05:50:33.830Z,40.43
2019-02-28T05:53:06.331Z,40.97
2019-02-28T05:55:38.165Z,41.90
2019-02-28T05:58:09.514Z,41.90
2019-02-28T06:00:41.897Z,41.60
2019-02-28T06:03:13.554Z,42.50
2019-02-28T06:05:47.139Z,41.07
2019-02-28T06:08:19.370Z,42.43
2019-02-28T06:10:50.064Z,39.77
2019-02-28T06:13:20.394Z,41.53
2019-02-28T06:15:51.810Z,40.10
2019-02-28T06:18:21.952Z,40.70
2019-02-28T06:20:53.838Z,41.30
2019-02-28T06:23:24.417Z,38.70
2019-02-28T06:25:55.741Z,40.00
2019-02-28T06:28:31.038Z,41.13
2019-02-28T06:31:01.206Z,41.13
2019-02-28T06:33:34.359Z,39.70
2019-02-28T06:36:05.075Z,41.03
2019-02-28T06:38:36.681Z,41.70
2019-02-28T06:41:09.361Z,39.53
2019-02-28T06:43:40.607Z,38.97
2019-02-28T06:46:11.861Z,40.40
2019-02-28T06:48:43.327Z,40.20
2019-02-28T06:51:16.877Z,41.00
2019-02-28T06:53:46.829Z,40.57
2019-02-28T06:56:22.222Z,40.43
2019-02-28T06:58:51.631Z,39.23
2019-02-28T07:01:22.903Z,38.13
2019-02-28T07:03:54.408Z,42.43
2019-02-28T07:06:26.865Z,41.07
2019-02-28T07:09:02.133Z,41.53
2019-02-28T07:11:31.045Z,43.60
2019-02-28T07:14:01.548Z,44.00
2019-02-28T07:16:34.498Z,41.00
2019-02-28T07:19:04.335Z,43.30
2019-02-28T07:21:34.694Z,41.03
2019-02-28T07:24:05.304Z,43.60
2019-02-28T07:26:36.751Z,44.27
2019-02-28T07:29:10.928Z,41.87
2019-02-28T07:31:39.463Z,43.60
2019-02-28T07:34:09.621Z,43.83
2019-02-28T07:36:44.309Z,43.13
2019-02-28T07:39:12.327Z,42.87
2019-02-28T07:41:42.829Z,42.20
2019-02-28T07:44:14.284Z,43.10
2019-02-28T07:46:46.039Z,43.00
2019-02-28T07:49:18.077Z,41.70
2019-02-28T07:51:49.983Z,42.47
2019-02-28T07:54:20.865Z,42.47
2019-02-28T07:56:52.673Z,41.70
2019-02-28T07:59:26.073Z,42.70
2019-02-28T08:01:56.614Z,42.13
2019-02-28T08:04:27.296Z,42.90
2019-02-28T08:06:57.804Z,42.63
2019-02-28T08:09:30.842Z,45.17
2019-02-28T08:12:04.001Z,42.70
2019-02-28T08:14:35.523Z,44.00
2019-02-28T08:17:09.094Z,42.97
2019-02-28T08:19:40.883Z,42.10
2019-02-28T08:22:11.140Z,41.70
2019-02-28T08:24:41.863Z,44.37
2019-02-28T08:27:12.381Z,43.30
2019-02-28T08:29:45.787Z,41.63
2019-02-28T08:32:14.981Z,44.50
2019-02-28T08:34:46.846Z,43.93
2019-02-28T08:37:19.040Z,41.97
2019-02-28T08:39:50.888Z,42.27
2019-02-28T08:42:21.406Z,42.33
2019-02-28T08:44:58.070Z,39.33
2019-02-28T08:47:24.853Z,43.93
2019-02-28T08:49:55.135Z,42.33
2019-02-28T08:52:26.702Z,44.50
2019-02-28T08:54:59.745Z,41.03
2019-02-28T08:57:30.841Z,42.83
2019-02-28T09:00:01.320Z,40.20
2019-02-28T09:02:33.570Z,41.30
2019-02-28T09:05:04.539Z,42.47
2019-02-28T09:07:34.909Z,42.50
2019-02-28T09:10:11.712Z,44.00
2019-02-28T09:12:40.290Z,42.27
2019-02-28T09:15:12.022Z,41.47
2019-02-28T09:17:42.289Z,40.67
2019-02-28T09:20:14.660Z,41.80
2019-02-28T09:22:45.864Z,40.73
2019-02-28T09:25:21.556Z,41.30
2019-02-28T09:27:50.465Z,39.90
2019-02-28T09:30:31.130Z,41.00
2019-02-28T09:33:04.628Z,41.87
2019-02-28T09:35:34.943Z,40.20
2019-02-28T09:38:07.682Z,41.63
2019-02-28T09:40:38.203Z,39.97
2019-02-28T09:43:08.284Z,41.00
2019-02-28T09:45:39.849Z,40.30
2019-02-28T09:48:10.372Z,41.23
2019-02-28T09:50:40.701Z,39.10
2019-02-28T09:53:15.487Z,40.10
2019-02-28T09:55:45.248Z,39.30
2019-02-28T09:58:16.699Z,42.60
2019-02-28T10:00:50.220Z,37.70
2019-02-28T10:03:19.676Z,39.80
2019-02-28T10:05:51.167Z,39.60
2019-02-28T10:08:21.905Z,41.47
2019-02-28T10:10:55.448Z,41.20
2019-02-28T10:13:27.471Z,42.17
2019-02-28T10:15:58.186Z,40.20
2019-02-28T10:18:29.563Z,38.93
2019-02-28T10:21:01.902Z,39.03
2019-02-28T10:23:34.209Z,40.43
2019-02-28T10:26:06.394Z,39.50
2019-02-28T10:28:36.734Z,40.70
2019-02-28T10:31:08.265Z,39.37
2019-02-28T10:33:39.178Z,40.63
2019-02-28T10:36:12.904Z,39.53
2019-02-28T10:38:41.863Z,41.90
2019-02-28T10:41:12.307Z,37.57
2019-02-28T10:43:42.617Z,40.30
2019-02-28T10:46:16.577Z,39.87
2019-02-28T10:48:50.935Z,41.40
2019-02-28T10:51:20.625Z,39.80
2019-02-28T10:53:53.622Z,38.70
2019-02-28T10:56:24.466Z,37.67
2019-02-28T10:58:54.731Z,38.07
2019-02-28T11:01:25.082Z,35.77
2019-02-28T11:03:55.849Z,38.90
2019-02-28T11:06:28.901Z,39.83
2019-02-28T11:08:59.706Z,39.27
2019-02-28T11:11:30.455Z,36.67
2019-02-28T11:14:03.990Z,37.00
2019-02-28T11:16:36.159Z,38.20
2019-02-28T11:19:07.904Z,38.30
2019-02-28T11:21:38.883Z,38.80
2019-02-28T11:24:09.031Z,38.10
2019-02-28T11:26:41.315Z,37.60
2019-02-28T11:29:13.253Z,38.13
2019-02-28T11:31:43.932Z,37.87
2019-02-28T11:34:15.727Z,36.37
2019-02-28T11:36:47.324Z,35.67
2019-02-28T11:39:20.709Z,35.27
2019-02-28T11:41:53.767Z,34.43
2019-02-28T11:44:25.276Z,36.10
2019-02-28T11:46:55.678Z,36.40
2019-02-28T11:49:28.658Z,36.33
2019-02-28T11:51:59.505Z,37.90
2019-02-28T11:54:30.055Z,36.17
2019-02-28T11:57:03.004Z,35.53
2019-02-28T11:59:34.641Z,37.30
2019-02-28T12:02:05.495Z,39.50
2019-02-28T12:04:40.384Z,36.63
2019-02-28T12:07:09.997Z,36.43
2019-02-28T12:09:41.847Z,38.37
2019-02-28T12:12:12.610Z,37.80
2019-02-28T12:14:44.744Z,36.43
2019-02-28T12:17:16.075Z,36.30
2019-02-28T12:19:47.627Z,37.20
2019-02-28T12:22:18.493Z,36.30
2019-02-28T12:24:50.049Z,36.67
2019-02-28T12:27:20.396Z,36.00
2019-02-28T12:29:51.659Z,37.47
2019-02-28T12:32:22.264Z,37.23
2019-02-28T12:34:52.719Z,36.00
2019-02-28T12:37:23.133Z,37.37
2019-02-28T12:39:54.783Z,36.73
2019-02-28T12:42:25.123Z,36.30
2019-02-28T12:44:55.850Z,33.70
2019-02-28T12:47:29.471Z,36.50
2019-02-28T12:50:00.931Z,34.47
2019-02-28T12:52:34.173Z,35.43
2019-02-28T12:55:07.608Z,35.87
2019-02-28T12:57:40.608Z,35.03
2019-02-28T13:00:15.520Z,35.97
2019-02-28T13:02:47.254Z,36.47
2019-02-28T13:06:13.794Z,35.50
2019-02-28T13:08:44.364Z,35.87
2019-02-28T13:11:14.672Z,32.80
2019-02-28T13:13:46.790Z,36.70
2019-02-28T13:16:20.726Z,33.63
2019-02-28T13:19:16.387Z,36.23
2019-02-28T13:21:49.740Z,35.50
2019-02-28T13:24:20.377Z,37.80
2019-02-28T13:26:50.704Z,35.13
2019-02-28T13:29:23.291Z,38.60
2019-02-28T13:31:57.682Z,34.43
2019-02-28T13:34:29.018Z,36.03
2019-02-28T13:37:02.936Z,36.03
2019-02-28T13:39:32.820Z,34.93
2019-02-28T13:42:04.310Z,36.27
2019-02-28T13:44:36.360Z,36.67
2019-02-28T13:47:09.888Z,36.60
2019-02-28T13:49:41.063Z,35.97
2019-02-28T13:52:19.098Z,35.97
2019-02-28T13:54:43.667Z,37.07
2019-02-28T13:57:15.115Z,35.07
2019-02-28T13:59:45.739Z,34.93
2019-02-28T14:02:16.077Z,35.93
2019-02-28T14:04:46.929Z,35.67
2019-02-28T14:07:17.351Z,37.40
2019-02-28T14:09:47.935Z,34.80
2019-02-28T14:12:20.785Z,33.83
2019-02-28T14:14:52.834Z,34.30
2019-02-28T14:17:25.109Z,32.97
2019-02-28T14:19:55.912Z,35.23
2019-02-28T14:22:26.216Z,34.20
2019-02-28T14:24:56.363Z,35.00
2019-02-28T14:27:27.896Z,36.23
2019-02-28T14:29:59.485Z,35.13
2019-02-28T14:32:32.103Z,34.93
2019-02-28T14:35:02.528Z,36.90
2019-02-28T14:37:34.950Z,36.70
2019-02-28T14:40:09.438Z,36.90
2019-02-28T14:42:40.841Z,36.43
2019-02-28T14:45:14.345Z,36.10
2019-02-28T14:47:44.890Z,35.90
2019-02-28T14:50:18.577Z,36.37
2019-02-28T14:52:47.406Z,36.80
2019-02-28T14:55:17.520Z,35.53
2019-02-28T14:57:48.890Z,34.73
2019-02-28T15:00:27.392Z,34.30
2019-02-28T15:02:59.453Z,32.30
2019-02-28T15:05:30.433Z,37.23
2019-02-28T15:08:01.777Z,35.13
2019-02-28T15:10:34.535Z,36.37
2019-02-28T15:13:07.839Z,37.20
2019-02-28T15:15:39.297Z,39.47
2019-02-28T15:18:10.968Z,38.10
2019-02-28T15:20:41.798Z,38.50
2019-02-28T15:23:12.338Z,36.70
2019-02-28T15:25:43.722Z,39.47
2019-02-28T15:28:14.814Z,38.20
2019-02-28T15:30:46.725Z,38.67
2019-02-28T15:33:18.784Z,39.80
2019-02-28T15:35:49.829Z,40.70
2019-02-28T15:38:23.274Z,39.13
2019-02-28T15:40:55.683Z,39.10
2019-02-28T15:43:28.675Z,39.40
2019-02-28T15:45:59.106Z,38.70
2019-02-28T15:48:31.429Z,35.90
2019-02-28T15:51:04.881Z,36.17
2019-02-28T15:53:37.977Z,35.87
2019-02-28T15:56:13.207Z,35.10
2019-02-28T15:58:42.611Z,36.07
2019-02-28T16:01:14.021Z,33.63
2019-02-28T16:03:48.374Z,34.40
2019-02-28T16:06:20.586Z,31.67
2019-02-28T16:08:52.359Z,35.50
2019-02-28T16:11:22.781Z,33.97
2019-02-28T16:13:53.937Z,33.90
2019-02-28T16:16:25.478Z,34.40
2019-02-28T16:18:56.912Z,33.97
2019-02-28T16:21:30.006Z,35.00
2019-02-28T16:24:01.992Z,33.20
2019-02-28T16:26:32.300Z,33.37
2019-02-28T16:29:02.563Z,33.90
2019-02-28T16:31:32.959Z,33.93
2019-02-28T16:34:08.284Z,34.33
2019-02-28T16:36:37.169Z,34.37
2019-02-28T16:39:07.570Z,34.60
2019-02-28T16:41:38.638Z,36.50
2019-02-28T16:44:09.409Z,35.20
2019-02-28T16:46:40.046Z,36.87
2019-02-28T16:49:13.138Z,36.33
2019-02-28T16:51:45.003Z,35.43
2019-02-28T16:54:19.265Z,36.03
2019-02-28T16:56:48.625Z,37.83
2019-02-28T16:59:19.169Z,38.23
2019-02-28T17:01:54.839Z,37.67
2019-02-28T17:04:25.626Z,34.80
2019-02-28T17:06:56.086Z,38.10
2019-02-28T17:09:45.780Z,38.10
2019-02-28T17:12:28.872Z,38.07
2019-02-28T17:14:59.908Z,38.27
2019-02-28T17:17:43.470Z,37.73
2019-02-28T17:20:15.741Z,37.67
2019-02-28T17:22:46.719Z,37.90
2019-02-28T17:25:21.372Z,41.43
2019-02-28T17:28:15.272Z,38.93
2019-02-28T17:31:08.449Z,40.80
2019-02-28T17:33:43.379Z,45.87
2019-02-28T17:36:13.051Z,46.33
2019-02-28T17:38:45.122Z,47.27
2019-02-28T17:41:18.115Z,43.90
2019-02-28T17:44:19.956Z,41.67
2019-02-28T17:46:52.214Z,41.60
2019-02-28T17:50:23.959Z,41.80
2019-02-28T17:53:30.644Z,45.50
2019-02-28T17:57:01.324Z,41.53
2019-02-28T18:00:16.156Z,42.90
2019-02-28T18:03:33.382Z,40.60
2019-02-28T18:07:26.571Z,43.60
2019-02-28T18:10:40.919Z,43.33
2019-02-28T18:14:11.515Z,42.50
2019-02-28T18:18:15.630Z,42.57
2019-02-28T18:21:52.842Z,44.20
2019-02-28T18:25:43.393Z,45.07
2019-02-28T18:29:08.303Z,43.60
2019-02-28T18:31:41.369Z,46.50
2019-02-28T18:34:21.882Z,43.53
2019-02-28T18:36:55.529Z,44.17
2019-02-28T18:39:28.718Z,47.17
2019-02-28T18:42:03.531Z,47.83
2019-02-28T18:44:37.475Z,49.27
2019-02-28T18:47:08.204Z,48.30
2019-02-28T18:49:38.583Z,47.90
2019-02-28T18:52:09.167Z,46.43
2019-02-28T18:54:40.244Z,45.93
2019-02-28T18:57:10.998Z,47.40
2019-02-28T18:59:43.856Z,46.20
2019-02-28T19:02:14.607Z,47.60
2019-02-28T19:04:46.883Z,46.00
2019-02-28T19:07:18.602Z,48.40
2019-02-28T19:09:50.962Z,48.80
2019-02-28T19:12:21.425Z,48.27
2019-02-28T19:14:52.116Z,48.77
2019-02-28T19:17:24.710Z,47.17
2019-02-28T19:19:55.845Z,45.50
2019-02-28T19:22:26.824Z,47.40
2019-02-28T19:24:57.841Z,47.13
2019-02-28T19:27:28.346Z,49.07
2019-02-28T19:29:59.373Z,46.80
2019-02-28T19:32:33.916Z,46.83
2019-02-28T19:35:06.104Z,50.03
2019-02-28T19:37:38.270Z,47.67
2019-02-28T19:40:09.831Z,51.30
2019-02-28T19:42:41.658Z,50.60
2019-02-28T19:45:13.754Z,49.03
2019-02-28T19:47:44.640Z,49.03
2019-02-28T19:50:16.616Z,48.70
2019-02-28T19:52:48.821Z,48.30
2019-02-28T19:55:22.733Z,49.93
2019-02-28T19:57:53.210Z,48.53
2019-02-28T20:00:23.670Z,50.40
2019-02-28T20:02:54.533Z,50.43
2019-02-28T20:05:25.250Z,51.97
2019-02-28T20:07:56.657Z,55.27
2019-02-28T20:10:27.477Z,53.10
2019-02-28T20:13:01.612Z,54.60
2019-02-28T20:15:36.318Z,54.23
2019-02-28T20:18:08.656Z,52.90
2019-02-28T20:20:39.720Z,53.67
2019-02-28T20:23:12.124Z,55.27
2019-02-28T20:25:44.434Z,53.17
2019-02-28T20:28:16.509Z,53.30
2019-02-28T20:30:48.679Z,54.73
2019-02-28T20:33:19.505Z,55.60
2019-02-28T20:35:51.271Z,52.57
2019-02-28T20:38:23.358Z,53.17
2019-02-28T20:40:56.125Z,53.13
2019-02-28T20:43:26.568Z,53.27
2019-02-28T20:45:57.677Z,54.30
2019-02-28T20:48:28.237Z,55.23
2019-02-28T20:50:58.565Z,53.30
2019-02-28T20:53:30.226Z,55.30
2019-02-28T20:56:01.047Z,56.50
2019-02-28T20:58:32.427Z,56.10
2019-02-28T21:01:03.204Z,56.63
2019-02-28T21:03:35.515Z,56.10
2019-02-28T21:06:07.253Z,55.77
2019-02-28T21:08:39.542Z,58.33
2019-02-28T21:11:11.064Z,56.80
2019-02-28T21:13:41.416Z,56.57
2019-02-28T21:16:13.975Z,58.37
2019-02-28T21:18:47.835Z,59.90
2019-02-28T21:21:18.568Z,60.30
2019-02-28T21:23:49.254Z,58.60
2019-02-28T21:26:21.757Z,60.43
2019-02-28T21:28:52.354Z,57.83
2019-02-28T21:31:22.553Z,57.83
2019-02-28T21:33:53.030Z,57.50
2019-02-28T21:36:23.111Z,57.73
2019-02-28T21:38:53.163Z,58.60
2019-02-28T21:41:23.284Z,56.00
2019-02-28T21:43:53.799Z,57.90
2019-02-28T21:46:25.033Z,58.13
2019-02-28T21:48:55.566Z,57.87
2019-02-28T21:51:25.981Z,57.07
2019-02-28T21:53:56.872Z,60.63
2019-02-28T21:56:27.234Z,57.70
2019-02-28T21:58:57.801Z,55.87
2019-02-28T22:01:27.870Z,56.60
2019-02-28T22:03:57.983Z,55.50
2019-02-28T22:06:28.046Z,56.80
2019-02-28T22:08:58.081Z,71.60
2019-02-28T22:11:30.461Z,73.57
2019-02-28T22:14:00.700Z,62.37
2019-02-28T22:16:32.200Z,62.30
2019-02-28T22:19:02.653Z,59.77
2019-02-28T22:21:33.817Z,57.80
2019-02-28T22:24:07.121Z,56.30
2019-02-28T22:26:38.376Z,56.40
2019-02-28T22:29:10.596Z,57.43
2019-02-28T22:32:12.388Z,59.17
2019-02-28T22:35:03.387Z,59.87
2019-02-28T22:37:35.037Z,59.70
2019-02-28T22:40:05.934Z,57.33
2019-02-28T22:42:36.447Z,58.17
2019-02-28T22:45:07.594Z,58.47
2019-02-28T22:47:38.919Z,59.17
2019-02-28T22:50:10.576Z,60.93
2019-02-28T22:52:42.755Z,61.50
2019-02-28T22:55:14.937Z,61.60
2019-02-28T22:57:48.111Z,62.20
2019-02-28T23:01:01.213Z,58.93
2019-02-28T23:03:33.896Z,60.47
2019-02-28T23:06:05.666Z,62.03
2019-02-28T23:08:40.840Z,60.17
2019-02-28T23:11:11.375Z,59.30
2019-02-28T23:13:42.698Z,60.43
2019-02-28T23:16:14.034Z,59.83
2019-02-28T23:18:44.447Z,61.80
2019-02-28T23:21:14.812Z,59.77
2019-02-28T23:23:48.415Z,61.83
2019-02-28T23:26:25.284Z,63.57
2019-02-28T23:29:17.873Z,61.87
2019-02-28T23:32:32.559Z,63.03
2019-02-28T23:35:03.813Z,60.83
2019-02-28T23:37:34.165Z,61.27
2019-02-28T23:40:05.769Z,63.03
2019-02-28T23:42:36.475Z,64.33
2019-02-28T23:45:07.222Z,64.67
2019-02-28T23:47:37.746Z,62.13
2019-02-28T23:50:09.481Z,67.77
2019-02-28T23:52:41.507Z,65.90
2019-02-28T23:55:12.055Z,66.60
2019-02-28T23:57:45.148Z,68.40
